Kerken UL

DE-0200 · North Rhine-Westphalia, 德国

2023年1月31日 10:002023年1月31日 19:00有效
时间
星期二
10:00
>40%
星期二
11:00
>40%
星期二
12:00
>40%
星期二
13:00
>40%
星期二
14:00
>40%
星期二
15:00
>40%
星期二
16:00
40%
星期二
17:00
40%
星期二
18:00
代码
MVFR
MVFR
MVFR
MVFR
MVFR
MVFR
MVFR
MVFR
MVFR
天气
碎云
碎云
碎云
碎云
碎云
碎云
阵雨 雨
天空晴朗
阵雨 雨
天空晴朗
碎云
能见度
10 km+
10 km+
10 km+
10 km+
10 km+
10 km+
10 km+
10 km+
10 km+
天花板
1.000 ft
1.000 ft
1.000 ft
1.000 ft
1.000 ft
1.000 ft
1.400 ft
1.400 ft
2.000 ft
230°
230°
230°
230°
230°
230°
230°
230°
230°
230°
230°
230°
250°
250°
250°
250°
230°
230°
速度
12 kt
12 kt
12 kt
12 kt
12 kt
12 kt
15 kt
15 kt
12 kt
阵风
25 kt
25 kt
温度/星期日
17:21

原版的

TAF EDLN 310800Z 3109/3118 23012KT 9999 BKN020
TEMPO 3109/3115 RADZ BKN010
PROB40 TEMPO 3115/3117 25015G25KT SHRA BKN014TCU

TAF Kerken UL

Kerken UL是,德国中的小机场。 该机场有一条跑道: 1/19. 该领域的国际民航组织标志是DE-0200.

这份报告是针对2023年1月31日 09:00, 当地时间在Mönchengladbach Airport进行的。 从2023年1月31日 10:00到2023年1月31日 19:00, 当地时间有效.

预报

  • 在星期二 10:00和19:00之间

    • 风: 风来自230°方向,速度为12 kt。
    • 能见度: 10 km 或者更多
    • 乌云: 碎云在2.000 ft的高度.
  • 暂时在星期二 10:00和16:00之间

    • 乌云: 碎云在1.000 ft的高度.
  • 暂时在星期二 16:00和18:00之间 ({一个机会)

    • 风: 风来自250°方向,速度为15 kt。 预计25 kt阵风。
    • 天气: 阵雨 雨
    • 乌云: 碎云 高耸的积云在1.400 ft的高度.

白天

今天,太阳从08:13升起,在17:21降落。 这适用于Kerken UL,世界夏令时可能有所不同。 当地时间与世界标准时间之间的时差为+1 小时。 当前,没有夏令时有效。

我们和第三方通过cookies跟踪您在我们网站上的互联网行为。如果你继续,我们认为你同意我们的饼干政策